sensor_id;sensor_type;location;lat;lon;timestamp;pressure;altitude;pressure_sealevel;temperature;humidity
6423;BME280;3244;42.708;23.288;2022-08-18T01:00:30;95013.81;;;23.03;nan
6423;BME280;3244;42.708;23.288;2022-08-18T01:10:25;94978.66;;;22.69;nan
6423;BME280;3244;42.708;23.288;2022-08-18T02:34:47;95019.81;;;21.54;nan
6423;BME280;3244;42.708;23.288;2022-08-18T05:26:57;95067.06;;;31.81;nan
6423;BME280;3244;42.708;23.288;2022-08-18T05:29:24;95046.97;;;32.96;nan
6423;BME280;3244;42.708;23.288;2022-08-18T05:31:51;95042.22;;;34.31;nan
6423;BME280;3244;42.708;23.288;2022-08-18T05:34:20;95041.16;;;35.59;nan
6423;BME280;3244;42.708;23.288;2022-08-18T05:37:12;95042.94;;;36.43;nan
6423;BME280;3244;42.708;23.288;2022-08-18T05:39:52;95036.41;;;37.40;nan
6423;BME280;3244;42.708;23.288;2022-08-18T05:47:25;95029.94;;;38.94;nan
6423;BME280;3244;42.708;23.288;2022-08-18T05:52:23;95024.72;;;38.87;nan
6423;BME280;3244;42.708;23.288;2022-08-18T05:54:58;95035.38;;;38.57;nan
6423;BME280;3244;42.708;23.288;2022-08-18T05:57:46;95033.09;;;39.02;nan
6423;BME280;3244;42.708;23.288;2022-08-18T06:02:45;95035.16;;;38.40;nan
6423;BME280;3244;42.708;23.288;2022-08-18T06:05:19;95026.84;;;40.25;nan
6423;BME280;3244;42.708;23.288;2022-08-18T06:07:52;95024.94;;;39.62;nan
6423;BME280;3244;42.708;23.288;2022-08-18T06:10:20;95026.19;;;39.25;nan
6423;BME280;3244;42.708;23.288;2022-08-18T06:12:49;95021.69;;;38.72;nan
6423;BME280;3244;42.708;23.288;2022-08-18T06:15:24;95023.97;;;38.20;nan
6423;BME280;3244;42.708;23.288;2022-08-18T06:18:21;95022.50;;;37.88;nan
6423;BME280;3244;42.708;23.288;2022-08-18T06:23:52;95028.22;;;38.58;nan
6423;BME280;3244;42.708;23.288;2022-08-18T06:26:28;95023.22;;;39.79;nan
6423;BME280;3244;42.708;23.288;2022-08-18T06:29:07;95024.16;;;41.44;nan
6423;BME280;3244;42.708;23.288;2022-08-18T06:31:44;95023.56;;;42.14;nan
6423;BME280;3244;42.708;23.288;2022-08-18T06:34:22;95029.84;;;41.31;nan
6423;BME280;3244;42.708;23.288;2022-08-18T06:36:53;95030.38;;;40.71;nan
6423;BME280;3244;42.708;23.288;2022-08-18T06:39:26;95035.94;;;40.98;nan
6423;BME280;3244;42.708;23.288;2022-08-18T06:41:55;95028.72;;;40.13;nan
6423;BME280;3244;42.708;23.288;2022-08-18T06:44:26;95027.94;;;40.01;nan
6423;BME280;3244;42.708;23.288;2022-08-18T06:46:59;95022.53;;;39.61;nan
6423;BME280;3244;42.708;23.288;2022-08-18T06:49:42;95039.75;;;39.70;nan
6423;BME280;3244;42.708;23.288;2022-08-18T06:52:26;95016.72;;;40.79;nan
6423;BME280;3244;42.708;23.288;2022-08-18T06:54:58;95012.19;;;40.80;nan
6423;BME280;3244;42.708;23.288;2022-08-18T06:57:31;95009.38;;;40.58;nan
6423;BME280;3244;42.708;23.288;2022-08-18T07:00:04;95016.47;;;40.52;nan
6423;BME280;3244;42.708;23.288;2022-08-18T07:02:41;95006.41;;;40.42;nan
6423;BME280;3244;42.708;23.288;2022-08-18T07:05:23;95010.50;;;40.62;nan
6423;BME280;3244;42.708;23.288;2022-08-18T07:08:05;95001.22;;;39.96;nan
6423;BME280;3244;42.708;23.288;2022-08-18T07:10:37;94997.75;;;40.07;nan
6423;BME280;3244;42.708;23.288;2022-08-18T07:13:14;94998.72;;;40.58;nan
6423;BME280;3244;42.708;23.288;2022-08-18T07:15:42;94998.44;;;39.91;nan
6423;BME280;3244;42.708;23.288;2022-08-18T07:18:11;94988.16;;;39.36;nan
6423;BME280;3244;42.708;23.288;2022-08-18T07:20:43;94992.72;;;39.47;nan
6423;BME280;3244;42.708;23.288;2022-08-18T07:23:25;94993.16;;;39.09;nan
6423;BME280;3244;42.708;23.288;2022-08-18T07:26:05;94981.25;;;38.70;nan
6423;BME280;3244;42.708;23.288;2022-08-18T07:28:36;94987.81;;;38.37;nan
6423;BME280;3244;42.708;23.288;2022-08-18T07:31:18;95010.06;;;38.06;nan
6423;BME280;3244;42.708;23.288;2022-08-18T07:33:54;95002.28;;;37.50;nan
6423;BME280;3244;42.708;23.288;2022-08-18T07:36:25;94989.00;;;37.32;nan
6423;BME280;3244;42.708;23.288;2022-08-18T07:38:57;94999.25;;;36.21;nan
6423;BME280;3244;42.708;23.288;2022-08-18T07:46:35;94997.25;;;35.19;nan
6423;BME280;3244;42.708;23.288;2022-08-18T07:51:43;94995.22;;;34.94;nan
6423;BME280;3244;42.708;23.288;2022-08-18T07:54:18;95008.97;;;34.57;nan
6423;BME280;3244;42.708;23.288;2022-08-18T07:56:52;94994.59;;;34.05;nan
6423;BME280;3244;42.708;23.288;2022-08-18T08:02:05;94993.91;;;34.31;nan
6423;BME280;3244;42.708;23.288;2022-08-18T08:04:46;94989.44;;;34.31;nan
6423;BME280;3244;42.708;23.288;2022-08-18T08:07:16;94996.47;;;33.76;nan
6423;BME280;3244;42.708;23.288;2022-08-18T08:14:59;94986.00;;;33.83;nan
6423;BME280;3244;42.708;23.288;2022-08-18T08:20:08;95006.97;;;33.63;nan
6423;BME280;3244;42.708;23.288;2022-08-18T08:22:45;94984.81;;;33.92;nan
6423;BME280;3244;42.708;23.288;2022-08-18T08:25:20;94987.50;;;33.64;nan
6423;BME280;3244;42.708;23.288;2022-08-18T08:28:00;94984.31;;;33.75;nan
6423;BME280;3244;42.708;23.288;2022-08-18T08:30:35;94982.56;;;33.83;nan
6423;BME280;3244;42.708;23.288;2022-08-18T08:33:09;94979.97;;;33.96;nan
6423;BME280;3244;42.708;23.288;2022-08-18T08:35:45;94980.16;;;33.53;nan
6423;BME280;3244;42.708;23.288;2022-08-18T08:38:17;94976.25;;;33.49;nan
6423;BME280;3244;42.708;23.288;2022-08-18T08:40:49;94980.16;;;33.53;nan
6423;BME280;3244;42.708;23.288;2022-08-18T08:43:24;94976.56;;;33.67;nan
6423;BME280;3244;42.708;23.288;2022-08-18T08:48:30;94974.00;;;33.46;nan
6423;BME280;3244;42.708;23.288;2022-08-18T08:51:02;94975.06;;;33.52;nan
6423;BME280;3244;42.708;23.288;2022-08-18T08:53:36;94978.09;;;33.49;nan
6423;BME280;3244;42.708;23.288;2022-08-18T08:58:41;94988.63;;;33.49;nan
6423;BME280;3244;42.708;23.288;2022-08-18T09:03:42;94981.66;;;33.34;nan
6423;BME280;3244;42.708;23.288;2022-08-18T09:06:20;94972.19;;;33.46;nan
6423;BME280;3244;42.708;23.288;2022-08-18T09:09:15;94969.13;;;33.43;nan
6423;BME280;3244;42.708;23.288;2022-08-18T09:20:23;94961.19;;;33.08;nan
6423;BME280;3244;42.708;23.288;2022-08-18T09:22:59;94949.09;;;33.21;nan
6423;BME280;3244;42.708;23.288;2022-08-18T09:25:33;94960.19;;;33.37;nan
6423;BME280;3244;42.708;23.288;2022-08-18T09:28:13;94956.91;;;33.29;nan
6423;BME280;3244;42.708;23.288;2022-08-18T09:30:47;94954.81;;;33.24;nan
6423;BME280;3244;42.708;23.288;2022-08-18T09:33:19;94954.00;;;33.24;nan
6423;BME280;3244;42.708;23.288;2022-08-18T09:38:37;94941.16;;;33.42;nan
6423;BME280;3244;42.708;23.288;2022-08-18T09:41:35;94951.31;;;33.45;nan
6423;BME280;3244;42.708;23.288;2022-08-18T09:44:11;94924.09;;;33.31;nan
6423;BME280;3244;42.708;23.288;2022-08-18T09:46:52;94929.78;;;33.35;nan
6423;BME280;3244;42.708;23.288;2022-08-18T09:49:45;94931.84;;;33.46;nan
6423;BME280;3244;42.708;23.288;2022-08-18T09:55:50;94920.88;;;33.36;nan
6423;BME280;3244;42.708;23.288;2022-08-18T09:58:45;94917.03;;;33.38;nan
6423;BME280;3244;42.708;23.288;2022-08-18T10:07:18;94905.28;;;33.06;nan
6423;BME280;3244;42.708;23.288;2022-08-18T10:09:53;94902.34;;;32.95;nan
6423;BME280;3244;42.708;23.288;2022-08-18T10:12:37;94916.56;;;33.00;nan
6423;BME280;3244;42.708;23.288;2022-08-18T10:15:38;94898.06;;;33.22;nan
6423;BME280;3244;42.708;23.288;2022-08-18T10:18:22;94907.94;;;33.47;nan
6423;BME280;3244;42.708;23.288;2022-08-18T10:20:59;94902.34;;;33.57;nan
6423;BME280;3244;42.708;23.288;2022-08-18T10:23:48;94899.66;;;33.51;nan
6423;BME280;3244;42.708;23.288;2022-08-18T10:29:52;94892.91;;;33.41;nan
6423;BME280;3244;42.708;23.288;2022-08-18T10:32:40;94880.84;;;33.60;nan
6423;BME280;3244;42.708;23.288;2022-08-18T10:40:53;94881.22;;;33.51;nan
6423;BME280;3244;42.708;23.288;2022-08-18T10:43:29;94884.63;;;33.86;nan
6423;BME280;3244;42.708;23.288;2022-08-18T10:45:57;94890.31;;;33.89;nan
6423;BME280;3244;42.708;23.288;2022-08-18T10:50:58;94876.91;;;33.84;nan
6423;BME280;3244;42.708;23.288;2022-08-18T10:53:32;94879.22;;;33.59;nan
6423;BME280;3244;42.708;23.288;2022-08-18T10:56:07;94878.72;;;33.36;nan
6423;BME280;3244;42.708;23.288;2022-08-18T11:01:46;94865.00;;;33.12;nan
6423;BME280;3244;42.708;23.288;2022-08-18T11:07:00;94861.69;;;33.32;nan
6423;BME280;3244;42.708;23.288;2022-08-18T11:09:29;94860.88;;;33.31;nan
6423;BME280;3244;42.708;23.288;2022-08-18T11:11:59;94860.06;;;33.31;nan
6423;BME280;3244;42.708;23.288;2022-08-18T11:14:45;94861.00;;;33.23;nan
6423;BME280;3244;42.708;23.288;2022-08-18T11:17:26;94864.94;;;33.34;nan
6423;BME280;3244;42.708;23.288;2022-08-18T11:19:57;94856.50;;;33.52;nan
6423;BME280;3244;42.708;23.288;2022-08-18T11:22:27;94863.84;;;33.69;nan
6423;BME280;3244;42.708;23.288;2022-08-18T11:24:55;94860.59;;;33.67;nan
6423;BME280;3244;42.708;23.288;2022-08-18T11:27:25;94885.44;;;33.86;nan
6423;BME280;3244;42.708;23.288;2022-08-18T11:29:52;94868.41;;;34.02;nan
6423;BME280;3244;42.708;23.288;2022-08-18T11:32:23;94870.22;;;33.88;nan
6423;BME280;3244;42.708;23.288;2022-08-18T11:35:04;94856.25;;;34.01;nan
6423;BME280;3244;42.708;23.288;2022-08-18T11:37:34;94861.50;;;33.88;nan
6423;BME280;3244;42.708;23.288;2022-08-18T11:40:06;94854.00;;;33.85;nan
6423;BME280;3244;42.708;23.288;2022-08-18T11:42:39;94847.63;;;33.72;nan
6423;BME280;3244;42.708;23.288;2022-08-18T11:45:15;94851.00;;;34.07;nan
6423;BME280;3244;42.708;23.288;2022-08-18T11:48:01;;;;34.00;
6423;BME280;3244;42.708;23.288;2022-08-18T11:55:43;94842.09;;;33.06;nan
6423;BME280;3244;42.708;23.288;2022-08-18T11:58:38;94842.25;;;33.33;nan
6423;BME280;3244;42.708;23.288;2022-08-18T12:06:11;94833.53;;;33.87;nan
6423;BME280;3244;42.708;23.288;2022-08-18T12:08:48;94836.78;;;33.89;nan
6423;BME280;3244;42.708;23.288;2022-08-18T12:11:18;94834.13;;;33.89;nan
6423;BME280;3244;42.708;23.288;2022-08-18T12:13:56;94826.00;;;33.97;nan
6423;BME280;3244;42.708;23.288;2022-08-18T12:18:57;94830.31;;;34.11;nan
6423;BME280;3244;42.708;23.288;2022-08-18T12:21:24;94822.38;;;34.18;nan
6423;BME280;3244;42.708;23.288;2022-08-18T12:26:17;94824.63;;;34.27;nan
6423;BME280;3244;42.708;23.288;2022-08-18T12:28:44;94817.75;;;34.13;nan
6423;BME280;3244;42.708;23.288;2022-08-18T12:31:12;94808.00;;;34.07;nan
6423;BME280;3244;42.708;23.288;2022-08-18T12:33:39;94810.63;;;34.20;nan
6423;BME280;3244;42.708;23.288;2022-08-18T12:36:06;94809.63;;;34.41;nan
6423;BME280;3244;42.708;23.288;2022-08-18T12:38:34;94804.97;;;34.50;nan
6423;BME280;3244;42.708;23.288;2022-08-18T12:41:01;94812.44;;;34.26;nan
6423;BME280;3244;42.708;23.288;2022-08-18T12:43:30;94818.56;;;34.13;nan
6423;BME280;3244;42.708;23.288;2022-08-18T12:45:57;94820.56;;;34.11;nan
6423;BME280;3244;42.708;23.288;2022-08-18T12:48:28;94815.91;;;34.07;nan
6423;BME280;3244;42.708;23.288;2022-08-18T12:50:56;94818.53;;;34.00;nan
6423;BME280;3244;42.708;23.288;2022-08-18T12:53:23;94810.00;;;34.05;nan
6423;BME280;3244;42.708;23.288;2022-08-18T12:58:17;94805.16;;;34.15;nan
6423;BME280;3244;42.708;23.288;2022-08-18T13:00:44;94806.38;;;34.06;nan
6423;BME280;3244;42.708;23.288;2022-08-18T13:03:12;94815.09;;;34.13;nan
6423;BME280;3244;42.708;23.288;2022-08-18T13:05:40;94812.69;;;34.31;nan
6423;BME280;3244;42.708;23.288;2022-08-18T13:08:13;94790.94;;;34.56;nan
6423;BME280;3244;42.708;23.288;2022-08-18T13:15:34;94791.34;;;34.26;nan
6423;BME280;3244;42.708;23.288;2022-08-18T13:18:01;94801.50;;;34.09;nan
6423;BME280;3244;42.708;23.288;2022-08-18T13:22:56;94793.75;;;33.82;nan
6423;BME280;3244;42.708;23.288;2022-08-18T13:27:49;94783.97;;;33.75;nan
6423;BME280;3244;42.708;23.288;2022-08-18T13:30:16;94774.91;;;33.85;nan
6423;BME280;3244;42.708;23.288;2022-08-18T13:32:44;94785.25;;;33.86;nan
6423;BME280;3244;42.708;23.288;2022-08-18T13:35:11;94773.09;;;33.85;nan
6423;BME280;3244;42.708;23.288;2022-08-18T13:40:08;94770.59;;;33.77;nan
6423;BME280;3244;42.708;23.288;2022-08-18T13:42:44;94781.97;;;33.64;nan
6423;BME280;3244;42.708;23.288;2022-08-18T13:45:14;94778.72;;;33.62;nan
6423;BME280;3244;42.708;23.288;2022-08-18T13:47:41;94768.16;;;33.56;nan
6423;BME280;3244;42.708;23.288;2022-08-18T13:50:09;94770.00;;;33.62;nan
6423;BME280;3244;42.708;23.288;2022-08-18T13:52:37;94769.34;;;33.66;nan
6423;BME280;3244;42.708;23.288;2022-08-18T13:55:09;94774.06;;;33.77;nan
6423;BME280;3244;42.708;23.288;2022-08-18T13:57:37;94768.63;;;33.92;nan
6423;BME280;3244;42.708;23.288;2022-08-18T14:00:07;94752.81;;;33.99;nan
6423;BME280;3244;42.708;23.288;2022-08-18T14:05:03;94770.66;;;34.03;nan
6423;BME280;3244;42.708;23.288;2022-08-18T14:07:30;94757.69;;;33.89;nan
6423;BME280;3244;42.708;23.288;2022-08-18T14:09:57;94767.34;;;33.75;nan
6423;BME280;3244;42.708;23.288;2022-08-18T14:12:25;94766.53;;;33.55;nan
6423;BME280;3244;42.708;23.288;2022-08-18T14:14:52;94758.19;;;33.51;nan
6423;BME280;3244;42.708;23.288;2022-08-18T14:17:20;94767.34;;;33.55;nan
6423;BME280;3244;42.708;23.288;2022-08-18T14:19:47;94762.63;;;33.44;nan
6423;BME280;3244;42.708;23.288;2022-08-18T14:22:32;94754.56;;;33.59;nan
6423;BME280;3244;42.708;23.288;2022-08-18T14:25:16;94749.16;;;33.80;nan
6423;BME280;3244;42.708;23.288;2022-08-18T14:28:02;94756.06;;;33.88;nan
6423;BME280;3244;42.708;23.288;2022-08-18T14:30:29;94742.69;;;33.89;nan
6423;BME280;3244;42.708;23.288;2022-08-18T14:32:56;94760.13;;;34.03;nan
6423;BME280;3244;42.708;23.288;2022-08-18T14:40:16;94754.03;;;33.83;nan
6423;BME280;3244;42.708;23.288;2022-08-18T14:42:44;94748.28;;;33.53;nan
6423;BME280;3244;42.708;23.288;2022-08-18T14:45:13;94738.34;;;33.55;nan
6423;BME280;3244;42.708;23.288;2022-08-18T14:47:41;94755.97;;;33.48;nan
6423;BME280;3244;42.708;23.288;2022-08-18T14:50:09;94751.50;;;33.49;nan
6423;BME280;3244;42.708;23.288;2022-08-18T14:52:38;94747.88;;;33.56;nan
6423;BME280;3244;42.708;23.288;2022-08-18T14:55:06;94752.75;;;33.59;nan
6423;BME280;3244;42.708;23.288;2022-08-18T14:57:33;94752.28;;;33.42;nan
6423;BME280;3244;42.708;23.288;2022-08-18T14:59:59;94757.16;;;33.39;nan
6423;BME280;3244;42.708;23.288;2022-08-18T15:02:28;94750.84;;;33.27;nan
6423;BME280;3244;42.708;23.288;2022-08-18T15:04:54;94747.84;;;33.36;nan
6423;BME280;3244;42.708;23.288;2022-08-18T15:07:21;94750.66;;;33.28;nan
6423;BME280;3244;42.708;23.288;2022-08-18T15:12:15;94767.63;;;33.26;nan
6423;BME280;3244;42.708;23.288;2022-08-18T15:14:42;94762.75;;;33.23;nan
6423;BME280;3244;42.708;23.288;2022-08-18T15:19:38;94714.09;;;33.19;nan
6423;BME280;3244;42.708;23.288;2022-08-18T15:22:04;94759.88;;;33.18;nan
6423;BME280;3244;42.708;23.288;2022-08-18T15:24:49;94757.03;;;33.06;nan
6423;BME280;3244;42.708;23.288;2022-08-18T15:27:35;94766.72;;;32.99;nan
6423;BME280;3244;42.708;23.288;2022-08-18T15:32:31;94759.03;;;33.04;nan
6423;BME280;3244;42.708;23.288;2022-08-18T15:34:59;94754.16;;;33.01;nan
6423;BME280;3244;42.708;23.288;2022-08-18T15:37:26;94761.63;;;32.97;nan
6423;BME280;3244;42.708;23.288;2022-08-18T15:39:58;94765.41;;;32.82;nan
6423;BME280;3244;42.708;23.288;2022-08-18T15:42:26;94771.88;;;32.79;nan
6423;BME280;3244;42.708;23.288;2022-08-18T15:47:20;94775.44;;;32.71;nan
6423;BME280;3244;42.708;23.288;2022-08-18T15:49:47;94755.53;;;32.56;nan
6423;BME280;3244;42.708;23.288;2022-08-18T15:52:15;94770.81;;;32.39;nan
6423;BME280;3244;42.708;23.288;2022-08-18T15:54:42;94760.63;;;32.29;nan
6423;BME280;3244;42.708;23.288;2022-08-18T15:59:36;94758.88;;;32.15;nan
6423;BME280;3244;42.708;23.288;2022-08-18T16:04:29;94766.47;;;32.03;nan
6423;BME280;3244;42.708;23.288;2022-08-18T16:14:17;94768.31;;;31.82;nan
6423;BME280;3244;42.708;23.288;2022-08-18T16:16:44;94771.94;;;31.81;nan
6423;BME280;3244;42.708;23.288;2022-08-18T16:19:10;94775.13;;;31.76;nan
6423;BME280;3244;42.708;23.288;2022-08-18T16:24:05;94775.78;;;31.63;nan
6423;BME280;3244;42.708;23.288;2022-08-18T16:26:33;94762.41;;;31.58;nan
6423;BME280;3244;42.708;23.288;2022-08-18T16:29:00;94770.00;;;31.53;nan
6423;BME280;3244;42.708;23.288;2022-08-18T16:33:55;94780.31;;;31.33;nan
6423;BME280;3244;42.708;23.288;2022-08-18T16:41:17;94774.03;;;31.13;nan
6423;BME280;3244;42.708;23.288;2022-08-18T16:43:46;94782.41;;;31.08;nan
6423;BME280;3244;42.708;23.288;2022-08-18T16:51:11;94789.50;;;30.93;nan
6423;BME280;3244;42.708;23.288;2022-08-18T16:53:38;94786.34;;;30.83;nan
6423;BME280;3244;42.708;23.288;2022-08-18T16:56:10;94788.78;;;30.70;nan
6423;BME280;3244;42.708;23.288;2022-08-18T16:58:37;94758.75;;;30.58;nan
6423;BME280;3244;42.708;23.288;2022-08-18T17:01:23;94781.41;;;30.51;nan
6423;BME280;3244;42.708;23.288;2022-08-18T17:04:07;94790.81;;;30.45;nan
6423;BME280;3244;42.708;23.288;2022-08-18T17:09:03;94786.56;;;30.29;nan
6423;BME280;3244;42.708;23.288;2022-08-18T17:13:59;94798.00;;;30.14;nan
6423;BME280;3244;42.708;23.288;2022-08-18T17:23:50;94800.28;;;29.94;nan
6423;BME280;3244;42.708;23.288;2022-08-18T17:33:46;94818.72;;;29.77;nan
6423;BME280;3244;42.708;23.288;2022-08-18T17:38:45;94833.41;;;29.64;nan
6423;BME280;3244;42.708;23.288;2022-08-18T17:46:13;94860.19;;;29.35;nan
6423;BME280;3244;42.708;23.288;2022-08-18T17:48:43;94836.81;;;29.33;nan
6423;BME280;3244;42.708;23.288;2022-08-18T17:54:13;94853.41;;;29.18;nan
6423;BME280;3244;42.708;23.288;2022-08-18T17:56:44;94865.69;;;29.09;nan
6423;BME280;3244;42.708;23.288;2022-08-18T17:59:16;94852.28;;;29.04;nan
6423;BME280;3244;42.708;23.288;2022-08-18T18:06:57;94881.31;;;28.86;nan
6423;BME280;3244;42.708;23.288;2022-08-18T18:09:29;94878.66;;;28.78;nan
6423;BME280;3244;42.708;23.288;2022-08-18T18:12:03;94869.22;;;28.69;nan
6423;BME280;3244;42.708;23.288;2022-08-18T18:17:13;94883.13;;;28.61;nan
6423;BME280;3244;42.708;23.288;2022-08-18T18:19:41;94888.19;;;28.55;nan
6423;BME280;3244;42.708;23.288;2022-08-18T18:24:48;94886.25;;;28.40;nan
6423;BME280;3244;42.708;23.288;2022-08-18T18:27:26;94893.41;;;28.22;nan
6423;BME280;3244;42.708;23.288;2022-08-18T18:29:56;94896.97;;;28.05;nan
6423;BME280;3244;42.708;23.288;2022-08-18T18:32:26;94887.84;;;28.09;nan
6423;BME280;3244;42.708;23.288;2022-08-18T18:35:11;94901.59;;;28.27;nan
6423;BME280;3244;42.708;23.288;2022-08-18T18:45:23;94899.88;;;27.77;nan
6423;BME280;3244;42.708;23.288;2022-08-18T18:47:59;94901.34;;;27.80;nan
6423;BME280;3244;42.708;23.288;2022-08-18T18:50:36;94900.84;;;27.76;nan
6423;BME280;3244;42.708;23.288;2022-08-18T18:55:50;94898.53;;;27.73;nan
6423;BME280;3244;42.708;23.288;2022-08-18T18:58:27;94897.09;;;27.79;nan
6423;BME280;3244;42.708;23.288;2022-08-18T19:03:31;94906.47;;;27.56;nan
6423;BME280;3244;42.708;23.288;2022-08-18T19:06:07;94900.25;;;27.49;nan
6423;BME280;3244;42.708;23.288;2022-08-18T19:08:47;94900.09;;;27.50;nan
6423;BME280;3244;42.708;23.288;2022-08-18T19:13:51;94906.28;;;27.49;nan
6423;BME280;3244;42.708;23.288;2022-08-18T19:16:25;94913.63;;;27.46;nan
6423;BME280;3244;42.708;23.288;2022-08-18T19:23:58;94902.16;;;26.96;nan
6423;BME280;3244;42.708;23.288;2022-08-18T19:26:31;94913.03;;;26.66;nan
6423;BME280;3244;42.708;23.288;2022-08-18T19:31:31;94907.59;;;27.11;nan
6423;BME280;3244;42.708;23.288;2022-08-18T19:34:05;94903.41;;;27.26;nan
6423;BME280;3244;42.708;23.288;2022-08-18T19:36:39;94903.25;;;27.28;nan
6423;BME280;3244;42.708;23.288;2022-08-18T19:39:12;94902.03;;;27.40;nan
6423;BME280;3244;42.708;23.288;2022-08-18T19:44:29;94895.44;;;27.62;nan
6423;BME280;3244;42.708;23.288;2022-08-18T19:49:34;94903.66;;;27.41;nan
6423;BME280;3244;42.708;23.288;2022-08-18T19:52:10;94909.69;;;27.41;nan
6423;BME280;3244;42.708;23.288;2022-08-18T19:54:50;94902.03;;;27.40;nan
6423;BME280;3244;42.708;23.288;2022-08-18T20:02:46;94892.25;;;27.50;nan
6423;BME280;3244;42.708;23.288;2022-08-18T20:10:45;94884.25;;;27.43;nan
6423;BME280;3244;42.708;23.288;2022-08-18T20:13:25;94889.78;;;27.40;nan
6423;BME280;3244;42.708;23.288;2022-08-18T20:21:47;94896.81;;;27.40;nan
6423;BME280;3244;42.708;23.288;2022-08-18T20:24:39;94886.63;;;27.21;nan
6423;BME280;3244;42.708;23.288;2022-08-18T20:27:21;94895.75;;;27.25;nan
6423;BME280;3244;42.708;23.288;2022-08-18T20:42:55;94913.03;;;27.18;nan
6423;BME280;3244;42.708;23.288;2022-08-18T20:53:29;94913.34;;;25.92;nan
6423;BME280;3244;42.708;23.288;2022-08-18T20:56:09;94912.88;;;25.79;nan
6423;BME280;3244;42.708;23.288;2022-08-18T20:58:53;94912.97;;;25.59;nan
6423;BME280;3244;42.708;23.288;2022-08-18T21:06:17;94917.81;;;25.82;nan
6423;BME280;3244;42.708;23.288;2022-08-18T21:11:22;94915.59;;;26.22;nan
6423;BME280;3244;42.708;23.288;2022-08-18T21:13:52;94925.66;;;26.35;nan
6423;BME280;3244;42.708;23.288;2022-08-18T21:16:36;94924.53;;;26.37;nan
6423;BME280;3244;42.708;23.288;2022-08-18T21:19:06;94915.44;;;26.06;nan
6423;BME280;3244;42.708;23.288;2022-08-18T21:26:33;94908.59;;;25.69;nan
6423;BME280;3244;42.708;23.288;2022-08-18T21:39:06;94914.16;;;25.47;nan
6423;BME280;3244;42.708;23.288;2022-08-18T21:46:38;94903.91;;;25.73;nan
6423;BME280;3244;42.708;23.288;2022-08-18T21:54:07;94907.75;;;26.04;nan
6423;BME280;3244;42.708;23.288;2022-08-18T21:56:35;94922.66;;;26.12;nan
6423;BME280;3244;42.708;23.288;2022-08-18T22:01:32;94889.47;;;26.32;nan
6423;BME280;3244;42.708;23.288;2022-08-18T22:04:01;94909.19;;;26.34;nan
6423;BME280;3244;42.708;23.288;2022-08-18T22:09:12;94901.56;;;26.23;nan
6423;BME280;3244;42.708;23.288;2022-08-18T22:12:11;94902.66;;;25.95;nan
6423;BME280;3244;42.708;23.288;2022-08-18T22:20:42;94908.97;;;24.73;nan
6423;BME280;3244;42.708;23.288;2022-08-18T22:28:42;94910.53;;;24.37;nan
6423;BME280;3244;42.708;23.288;2022-08-18T22:31:10;94894.53;;;24.41;nan
6423;BME280;3244;42.708;23.288;2022-08-18T22:45:54;94904.88;;;24.51;nan
6423;BME280;3244;42.708;23.288;2022-08-18T22:58:09;94887.16;;;24.18;nan
6423;BME280;3244;42.708;23.288;2022-08-18T23:15:19;94889.59;;;24.19;nan
6423;BME280;3244;42.708;23.288;2022-08-18T23:34:57;94889.22;;;23.26;nan
